createdAt,value
2023-05-12T00:00:07.171Z,23.77
2023-05-12T00:02:35.414Z,21.83
2023-05-12T00:07:51.537Z,23.30
2023-05-12T00:10:19.784Z,22.67
2023-05-12T00:12:48.048Z,22.20
2023-05-12T00:15:15.857Z,23.30
2023-05-12T00:17:43.702Z,22.27
2023-05-12T00:20:13.047Z,24.70
2023-05-12T00:25:28.034Z,23.27
2023-05-12T00:27:56.065Z,24.07
2023-05-12T00:30:23.931Z,23.83
2023-05-12T00:32:51.779Z,23.17
2023-05-12T00:35:19.978Z,24.10
2023-05-12T00:37:47.828Z,23.40
2023-05-12T00:40:15.830Z,23.70
2023-05-12T00:42:43.653Z,24.03
2023-05-12T00:45:12.545Z,23.83
2023-05-12T00:47:40.664Z,24.10
2023-05-12T00:50:10.303Z,24.07
2023-05-12T00:52:38.093Z,23.00
2023-05-12T00:55:08.128Z,23.67
2023-05-12T00:57:35.843Z,23.33
2023-05-12T01:00:06.454Z,23.43
2023-05-12T01:02:35.021Z,21.90
2023-05-12T01:05:03.647Z,22.07
2023-05-12T01:07:33.360Z,23.00
2023-05-12T01:10:01.195Z,23.17
2023-05-12T01:12:31.591Z,22.13
2023-05-12T01:14:59.600Z,22.47
2023-05-12T01:17:32.574Z,22.33
2023-05-12T01:20:03.116Z,21.57
2023-05-12T01:22:31.548Z,21.77
2023-05-12T01:25:02.127Z,22.20
2023-05-12T01:27:31.170Z,20.77
2023-05-12T01:30:00.888Z,22.67
2023-05-12T01:32:29.700Z,20.90
2023-05-12T01:34:57.587Z,21.33
2023-05-12T01:37:26.042Z,20.80
2023-05-12T01:39:53.891Z,21.43
2023-05-12T01:42:21.665Z,20.00
2023-05-12T01:44:49.436Z,21.37
2023-05-12T01:47:17.279Z,20.27
2023-05-12T01:49:45.414Z,20.83
2023-05-12T01:52:13.203Z,20.57
2023-05-12T01:54:40.984Z,19.53
2023-05-12T01:57:08.769Z,21.60
2023-05-12T01:59:36.467Z,19.47
2023-05-12T02:02:04.924Z,20.47
2023-05-12T02:04:32.770Z,19.83
2023-05-12T02:07:01.185Z,18.57
2023-05-12T02:09:28.985Z,18.63
2023-05-12T02:11:57.295Z,18.80
2023-05-12T02:14:25.142Z,17.47
2023-05-12T02:16:53.403Z,17.70
2023-05-12T02:19:21.252Z,18.53
2023-05-12T02:21:49.358Z,18.00
2023-05-12T02:24:17.191Z,18.07
2023-05-12T02:26:45.475Z,17.67
2023-05-12T02:29:13.296Z,17.90
2023-05-12T02:31:41.775Z,17.37
2023-05-12T02:34:09.615Z,17.57
2023-05-12T02:36:37.465Z,16.73
2023-05-12T02:39:05.524Z,18.17
2023-05-12T02:41:33.536Z,16.20
2023-05-12T02:44:01.255Z,16.63
2023-05-12T02:46:29.202Z,15.30
2023-05-12T02:48:57.165Z,15.60
2023-05-12T02:51:24.965Z,16.40
2023-05-12T02:53:52.744Z,15.03
2023-05-12T02:56:21.729Z,14.70
2023-05-12T02:58:49.496Z,15.03
2023-05-12T03:01:17.300Z,14.93
2023-05-12T03:03:45.700Z,13.20
2023-05-12T03:06:13.751Z,13.17
2023-05-12T03:08:41.639Z,12.20
2023-05-12T03:11:09.758Z,13.17
2023-05-12T03:13:37.501Z,11.63
2023-05-12T03:16:06.461Z,11.63
2023-05-12T03:18:34.478Z,11.43
2023-05-12T03:21:02.958Z,11.43
2023-05-12T03:23:30.794Z,11.27
2023-05-12T03:25:58.790Z,10.60
2023-05-12T03:28:26.578Z,11.23
2023-05-12T03:33:41.392Z,10.07
2023-05-12T03:36:09.969Z,10.10
2023-05-12T03:38:37.749Z,9.17
2023-05-12T03:41:06.442Z,9.50
2023-05-12T03:43:35.282Z,9.23
2023-05-12T03:46:03.478Z,10.47
2023-05-12T03:48:31.330Z,9.07
2023-05-12T03:50:59.275Z,9.30
2023-05-12T03:53:27.006Z,8.87
2023-05-12T03:55:54.916Z,9.67
2023-05-12T03:58:23.752Z,9.10
2023-05-12T04:00:51.545Z,8.50
2023-05-12T04:03:19.461Z,8.60
2023-05-12T04:05:47.540Z,9.47
2023-05-12T04:08:15.346Z,10.00
2023-05-12T04:10:43.168Z,9.03
2023-05-12T04:13:10.968Z,9.10
2023-05-12T04:15:39.617Z,8.70
2023-05-12T04:18:07.488Z,9.43
2023-05-12T04:20:35.780Z,11.57
2023-05-12T04:23:03.569Z,9.17
2023-05-12T04:25:31.451Z,8.77
2023-05-12T04:27:59.328Z,8.20
2023-05-12T04:30:27.186Z,8.10
2023-05-12T04:32:55.146Z,8.00
2023-05-12T04:35:22.966Z,7.73
2023-05-12T04:37:50.881Z,7.10
2023-05-12T04:40:19.279Z,7.13
2023-05-12T04:42:47.891Z,7.40
2023-05-12T04:45:15.833Z,8.10
2023-05-12T04:47:43.637Z,7.40
2023-05-12T04:50:12.545Z,8.27
2023-05-12T04:52:40.504Z,7.17
2023-05-12T04:55:09.879Z,7.37
2023-05-12T04:57:40.393Z,7.10
2023-05-12T05:00:10.578Z,6.90
2023-05-12T05:02:39.069Z,6.90
2023-05-12T05:05:08.666Z,8.20
2023-05-12T05:07:36.448Z,7.17
2023-05-12T05:10:06.142Z,8.03
2023-05-12T05:12:34.028Z,7.87
2023-05-12T05:15:01.761Z,9.07
2023-05-12T05:17:29.594Z,8.20
2023-05-12T05:19:59.566Z,7.93
2023-05-12T05:22:27.778Z,7.77
2023-05-12T05:24:55.985Z,7.73
2023-05-12T05:27:23.905Z,7.73
2023-05-12T05:29:51.942Z,7.43
2023-05-12T05:32:19.773Z,6.90
2023-05-12T05:34:47.582Z,7.63
2023-05-12T05:37:15.374Z,7.83
2023-05-12T05:42:32.385Z,7.47
2023-05-12T05:45:00.966Z,7.40
2023-05-12T05:47:31.075Z,6.90
2023-05-12T05:50:00.226Z,7.63
2023-05-12T05:52:28.764Z,6.90
2023-05-12T05:54:57.245Z,11.07
2023-05-12T05:57:27.171Z,8.87
2023-05-12T05:59:54.988Z,7.03
2023-05-12T06:02:23.179Z,6.67
2023-05-12T06:04:51.949Z,6.00
2023-05-12T06:07:22.096Z,6.83
2023-05-12T06:09:50.660Z,6.63
2023-05-12T06:12:19.318Z,6.37
2023-05-12T06:14:47.809Z,6.30
2023-05-12T06:17:16.355Z,6.30
2023-05-12T06:22:31.362Z,5.43
2023-05-12T06:24:59.945Z,5.90
2023-05-12T06:27:29.830Z,5.60
2023-05-12T06:29:58.206Z,5.43
2023-05-12T06:32:26.357Z,5.63
2023-05-12T06:34:54.847Z,5.80
2023-05-12T06:37:23.593Z,5.90
2023-05-12T06:39:51.596Z,5.63
2023-05-12T06:42:19.380Z,5.73
2023-05-12T06:44:47.202Z,5.20
2023-05-12T06:47:15.076Z,5.90
2023-05-12T06:49:43.332Z,5.37
2023-05-12T06:52:12.122Z,6.13
2023-05-12T06:54:39.887Z,5.17
2023-05-12T06:57:07.650Z,5.60
2023-05-12T06:59:35.499Z,5.10
2023-05-12T07:02:03.363Z,5.27
2023-05-12T07:04:31.228Z,5.43
2023-05-12T07:06:59.016Z,5.70
2023-05-12T07:09:26.811Z,5.27
2023-05-12T07:11:55.391Z,5.00
2023-05-12T07:14:23.276Z,4.87
2023-05-12T07:16:51.128Z,5.57
2023-05-12T07:19:18.938Z,5.17
2023-05-12T07:21:46.721Z,4.57
2023-05-12T07:24:15.949Z,4.93
2023-05-12T07:26:44.041Z,4.70
2023-05-12T07:29:13.811Z,5.13
2023-05-12T07:31:42.052Z,4.63
2023-05-12T07:34:10.249Z,5.47
2023-05-12T07:36:38.543Z,4.03
2023-05-12T07:39:06.332Z,4.57
2023-05-12T07:41:34.586Z,4.10
2023-05-12T07:44:02.883Z,4.53
2023-05-12T07:46:30.749Z,4.50
2023-05-12T07:48:58.579Z,3.60
2023-05-12T07:51:26.406Z,4.20
2023-05-12T07:53:55.872Z,3.90
2023-05-12T07:56:24.069Z,3.47
2023-05-12T07:58:52.046Z,3.60
2023-05-12T08:01:19.879Z,4.00
2023-05-12T08:03:48.013Z,3.80
2023-05-12T08:06:15.939Z,4.10
2023-05-12T08:08:43.761Z,3.60
2023-05-12T08:11:12.238Z,3.80
2023-05-12T08:13:40.147Z,3.33
2023-05-12T08:16:08.008Z,3.70
2023-05-12T08:18:36.199Z,3.60
2023-05-12T08:21:04.671Z,3.63
2023-05-12T08:23:32.630Z,3.20
2023-05-12T08:26:00.508Z,3.83
2023-05-12T08:28:28.385Z,3.83
2023-05-12T08:30:56.307Z,3.97
2023-05-12T08:33:24.964Z,3.20
2023-05-12T08:35:52.965Z,3.57
2023-05-12T08:38:21.382Z,4.33
2023-05-12T08:43:49.594Z,4.13
2023-05-12T08:46:17.684Z,3.93
2023-05-12T08:48:46.812Z,3.10
2023-05-12T08:51:15.504Z,3.37
2023-05-12T08:53:43.357Z,3.10
2023-05-12T08:58:44.661Z,2.83
2023-05-12T09:01:14.061Z,3.70
2023-05-12T09:03:42.259Z,3.07
2023-05-12T09:06:11.358Z,3.57
2023-05-12T09:08:40.510Z,3.20
2023-05-12T09:14:00.692Z,2.80
2023-05-12T09:16:32.477Z,3.17
2023-05-12T09:19:01.524Z,2.90
2023-05-12T09:21:29.823Z,3.57
2023-05-12T09:23:59.093Z,2.47
2023-05-12T09:26:28.095Z,3.20
2023-05-12T09:29:04.160Z,2.90
2023-05-12T09:31:32.015Z,2.83
2023-05-12T09:34:01.600Z,3.07
2023-05-12T09:36:29.640Z,3.17
2023-05-12T09:39:03.892Z,2.70
2023-05-12T09:41:34.893Z,3.40
2023-05-12T09:44:03.581Z,3.00
2023-05-12T09:46:31.830Z,3.43
2023-05-12T09:49:00.386Z,3.30
2023-05-12T09:51:29.865Z,3.23
2023-05-12T09:53:58.200Z,2.80
2023-05-12T09:56:28.780Z,2.67
2023-05-12T09:58:57.777Z,2.90
2023-05-12T10:01:26.603Z,3.03
2023-05-12T10:03:55.681Z,3.00
2023-05-12T10:06:27.690Z,2.97
2023-05-12T10:09:14.963Z,3.30
2023-05-12T10:11:44.047Z,3.27
2023-05-12T10:14:12.768Z,4.07
2023-05-12T10:16:41.384Z,3.00
2023-05-12T10:19:10.198Z,3.90
2023-05-12T10:21:39.011Z,4.10
2023-05-12T10:24:07.544Z,3.20
2023-05-12T10:26:39.059Z,3.67
2023-05-12T10:29:07.615Z,3.90
2023-05-12T10:31:36.186Z,4.13
2023-05-12T10:34:05.256Z,3.73
2023-05-12T10:36:45.632Z,3.10
2023-05-12T10:39:15.282Z,3.93
2023-05-12T10:41:43.341Z,3.57
2023-05-12T10:44:11.450Z,4.27
2023-05-12T10:46:39.376Z,3.67
2023-05-12T10:49:09.706Z,3.70
2023-05-12T10:51:48.536Z,3.40
2023-05-12T10:54:21.368Z,3.50
2023-05-12T10:56:49.566Z,3.53
2023-05-12T10:59:20.277Z,4.10
2023-05-12T11:02:01.853Z,3.37
2023-05-12T11:07:30.511Z,3.60
2023-05-12T11:10:01.445Z,3.10
2023-05-12T11:12:33.170Z,3.10
2023-05-12T11:15:02.753Z,3.00
2023-05-12T11:17:31.427Z,3.03
2023-05-12T11:20:00.114Z,3.20
2023-05-12T11:22:28.177Z,3.33
2023-05-12T11:24:56.186Z,3.60
2023-05-12T11:27:24.492Z,4.10
2023-05-12T11:30:03.745Z,3.90
2023-05-12T11:32:31.645Z,3.53
2023-05-12T11:35:12.693Z,3.80
2023-05-12T11:37:42.106Z,4.00
2023-05-12T11:40:15.767Z,4.30
2023-05-12T11:42:47.676Z,4.60
2023-05-12T11:45:26.342Z,5.00
2023-05-12T11:48:06.828Z,5.67
2023-05-12T11:50:36.916Z,5.50
2023-05-12T11:53:04.825Z,4.93
2023-05-12T11:58:25.975Z,4.80
2023-05-12T12:00:54.508Z,4.93
2023-05-12T12:03:23.101Z,4.73
2023-05-12T12:06:01.852Z,4.77
2023-05-12T12:08:30.317Z,5.00
2023-05-12T12:10:58.359Z,4.33
2023-05-12T12:13:26.889Z,5.73
2023-05-12T12:15:55.473Z,4.83
2023-05-12T12:18:23.601Z,5.47
2023-05-12T12:20:51.432Z,5.00
2023-05-12T12:23:19.294Z,5.33
2023-05-12T12:25:47.098Z,4.83
2023-05-12T12:28:15.303Z,5.87
2023-05-12T12:30:43.101Z,4.53
2023-05-12T12:33:11.236Z,4.80
2023-05-12T12:35:39.216Z,3.90
2023-05-12T12:38:08.218Z,4.83
2023-05-12T12:40:36.156Z,4.07
2023-05-12T12:43:03.981Z,4.70
2023-05-12T12:45:31.846Z,4.60
2023-05-12T12:48:00.002Z,4.80
2023-05-12T12:50:28.541Z,4.30
2023-05-12T12:52:56.927Z,4.33
2023-05-12T12:55:25.319Z,4.33
2023-05-12T12:57:53.152Z,4.87
2023-05-12T13:00:23.105Z,4.83
2023-05-12T13:02:51.170Z,4.57
2023-05-12T13:05:19.682Z,4.80
2023-05-12T13:07:47.731Z,5.10
2023-05-12T13:10:16.031Z,6.23
2023-05-12T13:12:44.286Z,5.47
2023-05-12T13:15:13.449Z,6.00
2023-05-12T13:17:41.391Z,4.90
2023-05-12T13:20:13.169Z,4.23
2023-05-12T13:22:41.499Z,4.07
2023-05-12T13:25:10.996Z,4.40
2023-05-12T13:27:39.419Z,4.57
2023-05-12T13:30:12.121Z,4.60
2023-05-12T13:32:41.684Z,4.57
2023-05-12T13:35:10.565Z,4.20
2023-05-12T13:37:38.938Z,4.83
2023-05-12T13:42:56.516Z,4.23
2023-05-12T13:45:24.828Z,5.37
2023-05-12T13:47:52.813Z,4.87
2023-05-12T13:50:20.848Z,4.43
2023-05-12T13:52:48.813Z,4.77
2023-05-12T13:55:20.894Z,4.70
2023-05-12T13:57:49.833Z,4.53
2023-05-12T14:03:09.489Z,4.13
2023-05-12T14:05:37.572Z,4.30
2023-05-12T14:08:05.966Z,4.00
2023-05-12T14:10:34.644Z,3.50
2023-05-12T14:13:02.428Z,3.47
2023-05-12T14:15:44.359Z,3.67
2023-05-12T14:18:15.659Z,4.30
2023-05-12T14:20:43.558Z,3.40
2023-05-12T14:23:11.483Z,3.13
2023-05-12T14:25:39.493Z,3.10
2023-05-12T14:28:07.364Z,3.57
2023-05-12T14:30:36.559Z,3.27
2023-05-12T14:33:04.804Z,3.33
2023-05-12T14:35:32.774Z,3.37
2023-05-12T14:38:00.628Z,3.40
2023-05-12T14:40:28.532Z,3.27
2023-05-12T14:42:56.471Z,3.20
2023-05-12T14:45:25.922Z,3.70
2023-05-12T14:47:53.848Z,4.00
2023-05-12T14:50:21.918Z,3.67
2023-05-12T14:52:49.886Z,3.83
2023-05-12T14:55:17.756Z,3.77
2023-05-12T14:57:46.564Z,3.37
2023-05-12T15:00:16.438Z,3.77
2023-05-12T15:02:45.033Z,3.73
2023-05-12T15:05:14.556Z,4.03
2023-05-12T15:07:42.419Z,3.70
2023-05-12T15:10:11.617Z,3.70
2023-05-12T15:12:39.360Z,3.77
2023-05-12T15:15:10.990Z,3.20
2023-05-12T15:17:38.908Z,3.80
2023-05-12T15:20:09.791Z,3.63
2023-05-12T15:22:37.720Z,3.50
2023-05-12T15:25:08.146Z,3.30
2023-05-12T15:27:35.990Z,3.10
2023-05-12T15:30:06.419Z,3.30
2023-05-12T15:32:34.246Z,3.30
2023-05-12T15:35:02.226Z,3.50
2023-05-12T15:37:30.168Z,3.50
2023-05-12T15:39:57.960Z,3.03
2023-05-12T15:42:30.084Z,3.77
2023-05-12T15:45:00.954Z,3.70
2023-05-12T15:47:28.935Z,3.40
2023-05-12T15:49:56.674Z,3.13
2023-05-12T15:52:24.440Z,3.47
2023-05-12T15:54:52.202Z,3.37
2023-05-12T15:57:20.042Z,3.27
2023-05-12T16:02:34.503Z,3.27
2023-05-12T16:05:02.420Z,3.73
2023-05-12T16:07:30.487Z,3.60
2023-05-12T16:09:58.703Z,4.80
2023-05-12T16:12:26.513Z,3.97
2023-05-12T16:14:54.233Z,3.43
2023-05-12T16:17:22.371Z,4.00
2023-05-12T16:19:52.393Z,3.97
2023-05-12T16:22:20.227Z,4.17
2023-05-12T16:24:48.694Z,3.73
2023-05-12T16:27:16.481Z,3.70
2023-05-12T16:29:44.879Z,3.70
2023-05-12T16:32:12.950Z,3.90
2023-05-12T16:34:40.915Z,4.00
2023-05-12T16:37:08.953Z,4.10
2023-05-12T16:39:37.051Z,3.80
2023-05-12T16:42:06.400Z,4.00
2023-05-12T16:44:34.765Z,3.77
2023-05-12T16:47:02.546Z,3.60
2023-05-12T16:49:30.261Z,3.97
2023-05-12T16:51:58.208Z,3.87
2023-05-12T16:57:14.637Z,3.83
2023-05-12T16:59:42.359Z,3.70
2023-05-12T17:02:10.461Z,3.77
2023-05-12T17:04:38.264Z,3.67
2023-05-12T17:07:06.555Z,4.03
2023-05-12T17:09:34.567Z,3.87
2023-05-12T17:12:03.724Z,3.73
2023-05-12T17:14:31.514Z,4.00
2023-05-12T17:16:59.424Z,3.87
2023-05-12T17:19:27.269Z,4.27
2023-05-12T17:21:55.213Z,4.00
2023-05-12T17:24:23.093Z,4.63
2023-05-12T17:26:51.058Z,3.40
2023-05-12T17:29:19.759Z,4.33
2023-05-12T17:31:47.675Z,4.70
2023-05-12T17:34:15.893Z,4.00
2023-05-12T17:36:43.718Z,3.77
2023-05-12T17:39:15.076Z,3.90
2023-05-12T17:41:43.405Z,4.23
2023-05-12T17:47:00.072Z,3.90
2023-05-12T17:49:27.934Z,4.30
2023-05-12T17:51:55.757Z,4.53
2023-05-12T17:54:23.494Z,3.70
2023-05-12T17:56:51.452Z,4.20
2023-05-12T17:59:19.313Z,3.90
2023-05-12T18:01:47.095Z,4.13
2023-05-12T18:04:14.884Z,3.87
2023-05-12T18:06:43.144Z,4.00
2023-05-12T18:09:12.989Z,4.00
2023-05-12T18:11:40.762Z,4.40
2023-05-12T18:14:08.677Z,3.60
2023-05-12T18:16:36.566Z,3.97
2023-05-12T18:19:04.600Z,4.60
2023-05-12T18:21:32.763Z,3.73
2023-05-12T18:24:01.482Z,3.77
2023-05-12T18:26:29.405Z,4.20
2023-05-12T18:28:57.453Z,3.80
2023-05-12T18:31:26.188Z,4.07
2023-05-12T18:33:54.129Z,3.67
2023-05-12T18:36:21.895Z,4.33
2023-05-12T18:38:49.662Z,4.20
2023-05-12T18:41:17.614Z,4.37
2023-05-12T18:43:45.420Z,4.17
2023-05-12T18:46:13.275Z,4.33
2023-05-12T18:48:41.165Z,4.20
2023-05-12T18:51:09.136Z,3.93
2023-05-12T18:53:36.910Z,4.23
2023-05-12T18:56:05.458Z,4.07
2023-05-12T18:58:33.196Z,4.00
2023-05-12T19:01:01.494Z,4.83
2023-05-12T19:03:30.450Z,4.73
2023-05-12T19:05:58.412Z,4.13
2023-05-12T19:08:26.384Z,4.27
2023-05-12T19:10:54.201Z,4.10
2023-05-12T19:13:22.197Z,4.37
2023-05-12T19:15:50.059Z,4.67
2023-05-12T19:18:17.956Z,5.30
2023-05-12T19:20:45.728Z,4.73
2023-05-12T19:23:13.693Z,4.90
2023-05-12T19:25:42.919Z,4.57
2023-05-12T19:28:11.518Z,4.57
2023-05-12T19:30:39.409Z,4.83
2023-05-12T19:33:07.340Z,4.43
2023-05-12T19:35:35.526Z,4.30
2023-05-12T19:38:03.303Z,4.77
2023-05-12T19:40:31.977Z,4.63
2023-05-12T19:42:59.846Z,4.93
2023-05-12T19:45:28.385Z,5.03
2023-05-12T19:47:57.274Z,4.73
2023-05-12T19:50:25.259Z,4.90
2023-05-12T19:52:53.090Z,5.47
2023-05-12T19:55:21.280Z,4.60
2023-05-12T19:57:49.380Z,4.67
2023-05-12T20:00:18.826Z,4.70
2023-05-12T20:02:46.659Z,4.90
2023-05-12T20:05:14.958Z,4.87
2023-05-12T20:07:42.855Z,5.00
2023-05-12T20:10:11.820Z,4.23
2023-05-12T20:12:39.672Z,4.67
2023-05-12T20:15:09.584Z,4.67
2023-05-12T20:17:37.506Z,5.00
2023-05-12T20:20:07.587Z,4.70
2023-05-12T20:22:35.411Z,4.70
2023-05-12T20:25:04.191Z,4.77
2023-05-12T20:27:32.541Z,4.73
2023-05-12T20:30:00.702Z,4.27
2023-05-12T20:32:28.437Z,4.97
2023-05-12T20:34:56.396Z,4.80
2023-05-12T20:37:24.379Z,5.07
2023-05-12T20:39:53.263Z,4.30
2023-05-12T20:42:21.115Z,4.83
2023-05-12T20:47:36.651Z,5.20
2023-05-12T20:50:06.618Z,5.60
2023-05-12T20:52:37.003Z,5.27
2023-05-12T20:55:07.036Z,4.73
2023-05-12T20:57:35.147Z,4.57
2023-05-12T21:00:03.583Z,5.10
2023-05-12T21:02:31.590Z,4.77
2023-05-12T21:04:59.530Z,4.40
2023-05-12T21:07:27.496Z,5.30
2023-05-12T21:09:55.353Z,4.10
2023-05-12T21:12:23.430Z,5.33
2023-05-12T21:14:51.422Z,4.57
2023-05-12T21:17:19.381Z,5.30
2023-05-12T21:19:47.410Z,4.80
2023-05-12T21:22:15.486Z,5.10
2023-05-12T21:24:43.602Z,4.53
2023-05-12T21:27:11.504Z,4.43
2023-05-12T21:29:39.424Z,5.00
2023-05-12T21:32:08.701Z,5.30
2023-05-12T21:34:36.735Z,4.83
2023-05-12T21:37:05.096Z,4.87
2023-05-12T21:39:32.990Z,5.10
2023-05-12T21:42:01.026Z,4.47
2023-05-12T21:44:29.202Z,4.67
2023-05-12T21:46:57.984Z,4.40
2023-05-12T21:49:26.161Z,4.73
2023-05-12T21:51:55.839Z,4.73
2023-05-12T21:54:23.646Z,5.20
2023-05-12T21:56:51.925Z,4.43
2023-05-12T21:59:19.968Z,5.10
2023-05-12T22:01:47.758Z,4.77
2023-05-12T22:04:15.910Z,5.17
2023-05-12T22:06:43.774Z,4.90
2023-05-12T22:09:11.721Z,4.50
2023-05-12T22:11:39.661Z,5.17
2023-05-12T22:14:07.805Z,4.47
2023-05-12T22:16:41.722Z,4.67
2023-05-12T22:19:10.606Z,4.53
2023-05-12T22:21:38.741Z,4.97
2023-05-12T22:26:57.221Z,5.00
2023-05-12T22:29:25.536Z,5.50
2023-05-12T22:31:53.447Z,4.60
2023-05-12T22:34:21.237Z,5.50
2023-05-12T22:36:48.927Z,4.93
2023-05-12T22:39:17.019Z,5.17
2023-05-12T22:41:44.796Z,4.70
2023-05-12T22:44:12.517Z,5.40
2023-05-12T22:46:40.305Z,4.70
2023-05-12T22:49:07.990Z,5.33
2023-05-12T22:51:35.734Z,5.10
2023-05-12T22:54:03.612Z,4.90
2023-05-12T22:56:31.308Z,5.83
2023-05-12T22:58:59.003Z,4.93
2023-05-12T23:01:26.731Z,5.67
2023-05-12T23:03:54.691Z,5.27
2023-05-12T23:06:22.725Z,5.43
2023-05-12T23:08:50.448Z,4.63
2023-05-12T23:11:18.280Z,5.17
2023-05-12T23:13:46.977Z,5.47
2023-05-12T23:16:14.838Z,4.97
2023-05-12T23:18:42.701Z,5.10
2023-05-12T23:21:10.574Z,4.93
2023-05-12T23:23:38.284Z,5.60
2023-05-12T23:26:06.231Z,5.17
2023-05-12T23:28:33.920Z,5.97
2023-05-12T23:31:02.619Z,5.23
2023-05-12T23:33:31.080Z,6.43
2023-05-12T23:35:58.912Z,5.40
2023-05-12T23:38:26.584Z,5.77
2023-05-12T23:40:54.314Z,5.27
2023-05-12T23:43:22.049Z,6.83
2023-05-12T23:45:49.982Z,5.43
2023-05-12T23:48:17.668Z,5.37
2023-05-12T23:50:45.369Z,5.43
2023-05-12T23:53:13.052Z,5.07
2023-05-12T23:55:40.823Z,5.17
2023-05-12T23:58:10.058Z,5.37
